createdAt,value
2022-08-26T00:01:55.668Z,90961.34
2022-08-26T00:04:25.336Z,90958.34
2022-08-26T00:06:53.531Z,90963.22
2022-08-26T00:09:20.702Z,90950.47
2022-08-26T00:11:47.729Z,90959.94
2022-08-26T00:14:16.256Z,90955.97
2022-08-26T00:16:48.057Z,90956.63
2022-08-26T00:19:20.353Z,90941.41
2022-08-26T00:21:48.678Z,90951.06
2022-08-26T00:24:17.992Z,90948.59
2022-08-26T00:26:44.780Z,90949.88
2022-08-26T00:29:12.389Z,90947.25
2022-08-26T00:31:40.278Z,90948.75
2022-08-26T00:34:09.559Z,90936.94
2022-08-26T00:36:39.566Z,90933.22
2022-08-26T00:39:08.492Z,90929.28
2022-08-26T00:41:38.029Z,90921.41
2022-08-26T00:44:05.748Z,90918.91
2022-08-26T00:46:38.498Z,90925.63
2022-08-26T00:49:17.489Z,90920.50
2022-08-26T00:51:49.423Z,90920.88
2022-08-26T00:54:17.982Z,90917.56
2022-08-26T00:57:02.767Z,90910.63
2022-08-26T00:59:33.269Z,90884.38
2022-08-26T01:02:01.016Z,90904.19
2022-08-26T01:04:31.431Z,90911.94
2022-08-26T01:06:59.199Z,90911.53
2022-08-26T01:09:26.232Z,90908.16
2022-08-26T01:11:57.577Z,90908.22
2022-08-26T01:14:26.969Z,90899.47
2022-08-26T01:16:54.631Z,90891.06
2022-08-26T01:19:33.280Z,90901.41
2022-08-26T01:22:28.204Z,90902.09
2022-08-26T01:24:57.561Z,90901.69
2022-08-26T01:27:24.971Z,90890.13
2022-08-26T01:29:52.012Z,90898.44
2022-08-26T01:32:22.587Z,90891.38
2022-08-26T01:34:50.687Z,90888.06
2022-08-26T01:37:22.952Z,90886.16
2022-08-26T01:39:57.337Z,90893.47
2022-08-26T01:42:26.045Z,90882.84
2022-08-26T01:45:02.273Z,90881.22
2022-08-26T01:47:31.913Z,90887.53
2022-08-26T01:50:01.688Z,90878.44
2022-08-26T01:52:33.465Z,90876.50
2022-08-26T01:55:01.021Z,90864.63
2022-08-26T01:57:28.697Z,90870.38
2022-08-26T02:00:01.505Z,90866.59
2022-08-26T02:02:28.414Z,90858.81
2022-08-26T02:05:04.494Z,90867.53
2022-08-26T02:07:33.276Z,90868.97
2022-08-26T02:10:00.843Z,90875.13
2022-08-26T02:12:27.716Z,90866.25
2022-08-26T02:14:58.123Z,90862.66
2022-08-26T02:17:33.291Z,90870.56
2022-08-26T02:20:02.406Z,90871.47
2022-08-26T02:22:30.985Z,90861.91
2022-08-26T02:25:20.780Z,90869.97
2022-08-26T02:27:51.345Z,90860.88
2022-08-26T02:30:25.007Z,90868.28
2022-08-26T02:32:53.208Z,90870.75
2022-08-26T02:35:22.056Z,90868.81
2022-08-26T02:37:53.266Z,90863.53
2022-08-26T02:40:24.310Z,90863.78
2022-08-26T02:42:52.975Z,90862.03
2022-08-26T02:45:23.824Z,90869.81
2022-08-26T02:47:51.748Z,90867.31
2022-08-26T02:50:19.715Z,90863.31
2022-08-26T02:52:48.507Z,90852.22
2022-08-26T02:55:15.695Z,90856.47
2022-08-26T02:57:45.108Z,90858.09
2022-08-26T03:00:14.854Z,90859.22
2022-08-26T03:02:42.145Z,90860.97
2022-08-26T03:05:12.097Z,90844.44
2022-08-26T03:07:39.371Z,90865.31
2022-08-26T03:10:08.799Z,90857.31
2022-08-26T03:12:36.270Z,90876.44
2022-08-26T03:15:03.368Z,90869.47
2022-08-26T03:17:46.404Z,90890.28
2022-08-26T03:20:13.752Z,90887.84
2022-08-26T03:22:43.186Z,90892.47
2022-08-26T03:25:12.879Z,90886.94
2022-08-26T03:27:41.850Z,90891.53
2022-08-26T03:30:31.046Z,90884.75
2022-08-26T03:32:58.498Z,90881.88
2022-08-26T03:35:25.931Z,90872.84
2022-08-26T03:37:53.701Z,90887.44
2022-08-26T03:40:21.383Z,90885.81
2022-08-26T03:42:49.489Z,90875.25
2022-08-26T03:45:18.384Z,90874.31
2022-08-26T03:47:46.391Z,90873.91
2022-08-26T03:50:22.994Z,90875.88
2022-08-26T03:52:55.797Z,90875.03
2022-08-26T03:55:31.070Z,90873.06
2022-08-26T03:57:58.625Z,90882.84
2022-08-26T04:00:25.459Z,90883.66
2022-08-26T04:02:53.245Z,90884.19
2022-08-26T04:05:21.935Z,90887.75
2022-08-26T04:07:51.192Z,90891.28
2022-08-26T04:10:22.139Z,90887.50
2022-08-26T04:12:58.844Z,90888.00
2022-08-26T04:15:27.034Z,90887.88
2022-08-26T04:17:54.027Z,90888.94
2022-08-26T04:20:22.574Z,90891.81
2022-08-26T04:22:49.351Z,90900.09
2022-08-26T04:25:16.765Z,90897.22
2022-08-26T04:27:43.401Z,90892.41
2022-08-26T04:30:11.187Z,90898.16
2022-08-26T04:32:38.701Z,90872.28
2022-08-26T04:35:06.198Z,90892.84
2022-08-26T04:37:33.615Z,90899.13
2022-08-26T04:40:00.772Z,90892.53
2022-08-26T04:42:29.359Z,90880.03
2022-08-26T04:44:56.053Z,90888.41
2022-08-26T04:47:22.743Z,90885.97
2022-08-26T04:49:49.727Z,90869.03
2022-08-26T04:52:17.082Z,90890.56
2022-08-26T04:54:43.981Z,90889.34
2022-08-26T04:57:11.141Z,90897.63
2022-08-26T04:59:39.497Z,90896.72
2022-08-26T05:02:08.864Z,90899.13
2022-08-26T05:04:36.143Z,90892.19
2022-08-26T05:07:05.410Z,90898.28
2022-08-26T05:09:33.189Z,90896.47
2022-08-26T05:11:59.816Z,90900.91
2022-08-26T05:14:30.739Z,90900.00
2022-08-26T05:16:57.389Z,90907.72
2022-08-26T05:19:24.822Z,90904.63
2022-08-26T05:21:54.536Z,90899.84
2022-08-26T05:24:21.908Z,90893.53
2022-08-26T05:26:48.588Z,90895.38
2022-08-26T05:29:17.642Z,90902.03
2022-08-26T05:31:44.670Z,90901.47
2022-08-26T05:34:11.756Z,90910.50
2022-08-26T05:36:39.254Z,90910.78
2022-08-26T05:39:06.971Z,90918.81
2022-08-26T05:41:38.341Z,90908.44
2022-08-26T05:44:07.567Z,90912.50
2022-08-26T05:46:36.693Z,90914.00
2022-08-26T05:49:05.896Z,90918.91
2022-08-26T05:51:35.087Z,90916.72
2022-08-26T05:54:03.636Z,90917.31
2022-08-26T05:56:30.694Z,90914.13
2022-08-26T05:58:59.936Z,90918.13
2022-08-26T06:01:28.658Z,90921.16
2022-08-26T06:04:03.623Z,90931.78
2022-08-26T06:06:33.950Z,90934.75
2022-08-26T06:09:02.544Z,90949.75
2022-08-26T06:11:32.183Z,90945.06
2022-08-26T06:14:04.041Z,90951.13
2022-08-26T06:16:33.676Z,90954.88
2022-08-26T06:19:03.324Z,90953.13
2022-08-26T06:21:36.158Z,90958.09
2022-08-26T06:24:27.441Z,90948.13
2022-08-26T06:26:57.345Z,90948.66
2022-08-26T06:29:26.477Z,90969.13
2022-08-26T06:31:54.842Z,90968.47
2022-08-26T06:34:29.940Z,90969.16
2022-08-26T06:36:59.919Z,90967.75
2022-08-26T06:39:31.484Z,90973.34
2022-08-26T06:41:59.806Z,90966.03
2022-08-26T06:44:29.521Z,90961.63
2022-08-26T06:46:56.218Z,90963.44
2022-08-26T06:49:27.465Z,90976.38
2022-08-26T06:52:02.938Z,90968.72
2022-08-26T06:54:32.637Z,90960.22
2022-08-26T06:57:00.067Z,90961.03
2022-08-26T06:59:26.768Z,90954.66
2022-08-26T07:01:55.054Z,90950.75
2022-08-26T07:04:24.698Z,90956.91
2022-08-26T07:06:55.178Z,90950.78
2022-08-26T07:09:28.399Z,90955.69
2022-08-26T07:11:58.619Z,90961.09
2022-08-26T07:14:26.224Z,90962.56
2022-08-26T07:16:53.518Z,90955.00
2022-08-26T07:19:29.778Z,90951.28
2022-08-26T07:22:02.074Z,90968.25
2022-08-26T07:24:29.257Z,90942.22
2022-08-26T07:27:03.799Z,90960.81
2022-08-26T07:29:33.314Z,90960.94
2022-08-26T07:32:00.468Z,90969.97
2022-08-26T07:34:27.720Z,90959.06
2022-08-26T07:36:55.474Z,90956.53
2022-08-26T07:39:25.045Z,90961.66
2022-08-26T07:41:52.709Z,90960.88
2022-08-26T07:44:19.439Z,90972.78
2022-08-26T07:46:53.211Z,90968.84
2022-08-26T07:49:22.210Z,90949.47
2022-08-26T07:51:50.397Z,90959.97
2022-08-26T07:54:17.285Z,90955.25
2022-08-26T07:56:47.014Z,90960.69
2022-08-26T07:59:16.194Z,90958.84
2022-08-26T08:01:44.753Z,90954.06
2022-08-26T08:04:17.431Z,90958.41
2022-08-26T08:06:45.720Z,90960.91
2022-08-26T08:09:15.641Z,90972.59
2022-08-26T08:11:45.863Z,90963.41
2022-08-26T08:14:15.538Z,90948.31
2022-08-26T08:16:47.021Z,90955.31
2022-08-26T08:19:18.146Z,90959.25
2022-08-26T08:21:46.152Z,90957.53
2022-08-26T08:24:12.895Z,90950.75
2022-08-26T08:26:40.133Z,90958.84
2022-08-26T08:29:09.950Z,90961.56
2022-08-26T08:34:25.980Z,90956.50
2022-08-26T08:36:53.228Z,90973.00
2022-08-26T08:39:20.427Z,90984.78
2022-08-26T08:42:00.587Z,90987.41
2022-08-26T08:44:33.965Z,90984.72
2022-08-26T08:47:21.654Z,90975.69
2022-08-26T08:49:48.311Z,90977.63
2022-08-26T08:52:38.485Z,90983.91
2022-08-26T08:55:11.031Z,90987.41
2022-08-26T08:58:05.005Z,90978.53
2022-08-26T09:00:45.128Z,90968.00
2022-08-26T09:03:42.693Z,90973.56
2022-08-26T09:06:18.809Z,90985.88
2022-08-26T09:08:50.118Z,90974.59
2022-08-26T09:11:19.812Z,90980.53
2022-08-26T09:13:52.579Z,90985.94
2022-08-26T09:16:27.716Z,90985.41
2022-08-26T09:19:37.145Z,90996.66
2022-08-26T09:22:09.375Z,90992.94
2022-08-26T09:24:42.086Z,90988.50
2022-08-26T09:27:40.005Z,90988.06
2022-08-26T09:30:07.758Z,90985.69
2022-08-26T09:32:38.422Z,90985.19
2022-08-26T09:35:24.075Z,90993.28
2022-08-26T09:40:40.907Z,90991.88
2022-08-26T09:43:23.173Z,90990.53
2022-08-26T09:45:59.546Z,90987.50
2022-08-26T09:48:34.349Z,90984.38
2022-08-26T09:51:27.488Z,90987.25
2022-08-26T09:54:00.668Z,90989.34
2022-08-26T09:56:33.306Z,90987.94
2022-08-26T09:59:01.762Z,90987.91
2022-08-26T10:01:42.182Z,90994.75
2022-08-26T10:04:16.442Z,90989.06
2022-08-26T10:07:05.740Z,90978.72
2022-08-26T10:09:46.388Z,90978.22
2022-08-26T10:12:23.734Z,90986.25
2022-08-26T10:14:56.253Z,90968.72
2022-08-26T10:17:34.058Z,90977.69
2022-08-26T10:20:34.830Z,90974.66
2022-08-26T10:23:04.768Z,90975.25
2022-08-26T10:25:43.837Z,90965.81
2022-08-26T10:28:20.579Z,90964.50
2022-08-26T10:30:56.214Z,90964.34
2022-08-26T10:33:23.994Z,90969.78
2022-08-26T10:35:57.705Z,90974.22
2022-08-26T10:38:34.838Z,90967.34
2022-08-26T10:41:13.802Z,90966.13
2022-08-26T10:43:52.532Z,90967.69
2022-08-26T10:46:27.323Z,90964.84
2022-08-26T10:49:11.092Z,90972.91
2022-08-26T10:52:22.047Z,90975.88
2022-08-26T10:55:08.532Z,90977.19
2022-08-26T10:57:50.077Z,90975.00
2022-08-26T11:00:42.422Z,90973.44
2022-08-26T11:03:34.418Z,90979.78
2022-08-26T11:06:21.488Z,90978.06
2022-08-26T11:08:53.094Z,90991.22
2022-08-26T11:11:41.532Z,90984.72
2022-08-26T11:14:28.456Z,90981.69
2022-08-26T11:16:59.236Z,90985.31
2022-08-26T11:20:01.197Z,90978.44
2022-08-26T11:22:36.245Z,90993.38
2022-08-26T11:25:09.542Z,90983.38
2022-08-26T11:27:40.791Z,90992.06
2022-08-26T11:30:21.825Z,90977.63
2022-08-26T11:32:56.938Z,90993.81
2022-08-26T11:35:24.358Z,90990.84
2022-08-26T11:37:57.328Z,90978.34
2022-08-26T11:40:28.564Z,90973.53
2022-08-26T11:43:23.539Z,90982.09
2022-08-26T11:46:04.337Z,90978.84
2022-08-26T11:48:33.980Z,90975.81
2022-08-26T11:51:07.627Z,90971.44
2022-08-26T11:53:42.468Z,90975.44
2022-08-26T11:56:32.528Z,90971.09
2022-08-26T11:59:03.676Z,90974.19
2022-08-26T12:01:38.015Z,90965.47
2022-08-26T12:04:08.398Z,90968.22
2022-08-26T12:06:45.072Z,90963.16
2022-08-26T12:09:27.449Z,90961.31
2022-08-26T12:12:12.532Z,90965.13
2022-08-26T12:14:39.737Z,90955.63
2022-08-26T12:17:16.315Z,90957.06
2022-08-26T12:19:44.017Z,90949.56
2022-08-26T12:22:36.138Z,90959.81
2022-08-26T12:25:06.866Z,90954.00
2022-08-26T12:27:43.139Z,90956.56
2022-08-26T12:30:19.200Z,90944.16
2022-08-26T12:32:57.871Z,90949.09
2022-08-26T12:35:26.910Z,90939.28
2022-08-26T12:37:56.915Z,90934.56
2022-08-26T12:40:47.779Z,90929.94
2022-08-26T12:43:35.567Z,90934.97
2022-08-26T12:46:06.513Z,90940.28
2022-08-26T12:48:39.598Z,90943.75
2022-08-26T12:51:09.316Z,90944.25
2022-08-26T12:53:43.198Z,90948.41
2022-08-26T12:56:25.147Z,90945.31
2022-08-26T12:59:26.706Z,90950.91
2022-08-26T13:01:54.741Z,90922.16
2022-08-26T13:04:46.530Z,90948.56
2022-08-26T13:07:22.985Z,90937.94
2022-08-26T13:09:56.307Z,90940.75
2022-08-26T13:12:25.559Z,90940.03
2022-08-26T13:14:52.242Z,90943.06
2022-08-26T13:17:19.042Z,90940.75
2022-08-26T13:19:45.673Z,90931.00
2022-08-26T13:22:13.775Z,90940.00
2022-08-26T13:24:43.421Z,90922.44
2022-08-26T13:27:12.863Z,90934.69
2022-08-26T13:29:39.566Z,90934.00
2022-08-26T13:32:07.861Z,90934.56
2022-08-26T13:34:39.355Z,90934.91
2022-08-26T13:37:06.446Z,90937.78
2022-08-26T13:39:33.580Z,90941.50
2022-08-26T13:42:02.258Z,90933.19
2022-08-26T13:44:28.918Z,90943.25
2022-08-26T13:46:55.608Z,90951.38
2022-08-26T13:49:22.737Z,90942.09
2022-08-26T13:51:49.390Z,90944.81
2022-08-26T13:54:20.721Z,90941.91
2022-08-26T13:56:47.398Z,90938.56
2022-08-26T13:59:14.261Z,90936.53
2022-08-26T14:01:41.121Z,90942.41
2022-08-26T14:04:08.432Z,90939.19
2022-08-26T14:06:35.086Z,90932.06
2022-08-26T14:09:04.426Z,90937.41
2022-08-26T14:11:39.099Z,90934.25
2022-08-26T14:14:18.204Z,90938.38
2022-08-26T14:16:58.849Z,90928.00
2022-08-26T14:19:28.140Z,90938.97
2022-08-26T14:21:54.799Z,90941.53
2022-08-26T14:24:22.439Z,90936.00
2022-08-26T14:26:49.168Z,90932.41
2022-08-26T14:29:16.819Z,90930.53
2022-08-26T14:31:44.271Z,90938.81
2022-08-26T14:34:13.890Z,90952.09
2022-08-26T14:36:40.599Z,90943.91
2022-08-26T14:39:10.142Z,90956.16
2022-08-26T14:41:43.900Z,90954.78
2022-08-26T14:44:14.774Z,90954.53
2022-08-26T14:46:52.999Z,90930.50
2022-08-26T14:49:21.639Z,90950.59
2022-08-26T14:51:48.749Z,90953.91
2022-08-26T14:54:18.227Z,90931.72
2022-08-26T14:56:58.953Z,90934.31
2022-08-26T14:59:31.557Z,90941.22
2022-08-26T15:01:59.189Z,90937.94
2022-08-26T15:04:26.576Z,90937.91
2022-08-26T15:06:56.364Z,90953.78
2022-08-26T15:09:23.826Z,90946.72
2022-08-26T15:11:51.006Z,90945.94
2022-08-26T15:14:19.477Z,90940.59
2022-08-26T15:16:56.979Z,90933.53
2022-08-26T15:19:25.189Z,90944.38
2022-08-26T15:21:52.033Z,90959.34
2022-08-26T15:24:24.105Z,90949.00
2022-08-26T15:26:53.366Z,90949.56
2022-08-26T15:29:20.784Z,90951.31
2022-08-26T15:31:51.084Z,90949.72
2022-08-26T15:34:17.887Z,90947.69
2022-08-26T15:36:46.541Z,90929.22
2022-08-26T15:39:14.974Z,90942.81
2022-08-26T15:41:41.689Z,90952.88
2022-08-26T15:44:10.104Z,90954.34
2022-08-26T15:46:37.541Z,90952.84
2022-08-26T15:49:06.444Z,90960.78
2022-08-26T15:51:45.666Z,90961.53
2022-08-26T15:54:19.314Z,90960.13
2022-08-26T15:56:47.924Z,90961.38
2022-08-26T15:59:14.755Z,90960.50
2022-08-26T16:01:43.532Z,90954.56
2022-08-26T16:04:14.703Z,90962.50
2022-08-26T16:06:42.497Z,90959.56
2022-08-26T16:09:10.134Z,90956.09
2022-08-26T16:11:37.798Z,90968.09
2022-08-26T16:14:05.961Z,90960.59
2022-08-26T16:16:34.814Z,90973.28
2022-08-26T16:19:05.612Z,90972.66
2022-08-26T16:21:35.722Z,90978.78
2022-08-26T16:24:03.529Z,90972.41
2022-08-26T16:26:32.917Z,90983.63
2022-08-26T16:29:06.599Z,90987.34
2022-08-26T16:31:33.903Z,90974.47
2022-08-26T16:34:00.951Z,90979.00
2022-08-26T16:36:28.091Z,91000.84
2022-08-26T16:38:56.355Z,90991.06
2022-08-26T16:41:25.108Z,91003.38
2022-08-26T16:43:52.680Z,90998.63
2022-08-26T16:46:22.186Z,90995.97
2022-08-26T16:48:49.051Z,91003.84
2022-08-26T16:51:18.205Z,91008.78
2022-08-26T16:53:46.035Z,91008.19
2022-08-26T16:56:19.309Z,91012.59
2022-08-26T16:58:48.251Z,91018.56
2022-08-26T17:01:16.444Z,91010.38
2022-08-26T17:03:43.980Z,91015.84
2022-08-26T17:06:10.850Z,91023.28
2022-08-26T17:08:39.461Z,91015.88
2022-08-26T17:11:07.167Z,91016.66
2022-08-26T17:13:35.241Z,91021.38
2022-08-26T17:16:05.061Z,91016.38
2022-08-26T17:18:33.424Z,91022.84
2022-08-26T17:21:06.317Z,91021.13
2022-08-26T17:23:33.840Z,91021.84
2022-08-26T17:26:00.615Z,91022.97
2022-08-26T17:28:27.443Z,91021.28
2022-08-26T17:30:57.950Z,91023.06
2022-08-26T17:33:25.666Z,91004.16
2022-08-26T17:35:53.260Z,91028.44
2022-08-26T17:38:23.501Z,91027.56
2022-08-26T17:40:50.379Z,91022.75
2022-08-26T17:43:18.236Z,91031.84
2022-08-26T17:45:44.902Z,91037.09
2022-08-26T17:48:12.480Z,91034.06
2022-08-26T17:50:41.376Z,91036.25
2022-08-26T17:53:12.684Z,91039.94
2022-08-26T17:55:45.908Z,91031.53
2022-08-26T17:58:14.734Z,91042.22
2022-08-26T18:00:47.201Z,91046.44
2022-08-26T18:03:14.105Z,91045.19
2022-08-26T18:05:43.638Z,91044.34
2022-08-26T18:08:10.271Z,91047.06
2022-08-26T18:10:36.931Z,91051.66
2022-08-26T18:13:03.557Z,91046.22
2022-08-26T18:15:30.254Z,91045.59
2022-08-26T18:17:56.879Z,91047.19
2022-08-26T18:20:23.564Z,91046.47
2022-08-26T18:22:54.743Z,91057.22
2022-08-26T18:25:21.997Z,91054.25
2022-08-26T18:27:48.673Z,91057.66
2022-08-26T18:30:18.437Z,91058.50
2022-08-26T18:32:45.236Z,91053.41
2022-08-26T18:35:12.339Z,91057.31
2022-08-26T18:37:39.951Z,91071.56
2022-08-26T18:40:09.736Z,91073.91
2022-08-26T18:42:37.708Z,91071.16
2022-08-26T18:45:06.336Z,91078.47
2022-08-26T18:47:33.716Z,91082.44
2022-08-26T18:50:01.439Z,91081.16
2022-08-26T18:52:28.377Z,91084.03
2022-08-26T18:54:55.439Z,91081.56
2022-08-26T18:57:22.299Z,91079.34
2022-08-26T18:59:49.217Z,91085.03
2022-08-26T19:02:16.007Z,91083.09
2022-08-26T19:04:44.190Z,91080.97
2022-08-26T19:07:11.044Z,91079.19
2022-08-26T19:09:37.764Z,91087.91
2022-08-26T19:12:05.344Z,91076.44
2022-08-26T19:14:35.068Z,91087.84
2022-08-26T19:17:03.939Z,91076.75
2022-08-26T19:19:33.758Z,91088.03
2022-08-26T19:22:01.057Z,91084.41
2022-08-26T19:24:28.356Z,91086.06
2022-08-26T19:26:58.437Z,91092.09
2022-08-26T19:29:28.708Z,91091.56
2022-08-26T19:31:55.690Z,91089.13
2022-08-26T19:34:22.422Z,91083.50
2022-08-26T19:36:51.834Z,91093.13
2022-08-26T19:39:19.521Z,91091.63
2022-08-26T19:41:46.261Z,91087.91
2022-08-26T19:44:39.293Z,91087.47
2022-08-26T19:47:09.254Z,91091.47
2022-08-26T19:49:38.321Z,91093.63
2022-08-26T19:52:06.720Z,91086.56
2022-08-26T19:54:34.617Z,91101.91
2022-08-26T19:57:01.283Z,91098.16
2022-08-26T19:59:29.303Z,91105.06
2022-08-26T20:02:01.348Z,91102.34
2022-08-26T20:04:30.403Z,91104.66
2022-08-26T20:06:57.802Z,91117.75
2022-08-26T20:09:30.042Z,91101.50
2022-08-26T20:11:58.728Z,91102.16
2022-08-26T20:14:26.261Z,91107.88
2022-08-26T20:16:53.039Z,91102.78
2022-08-26T20:19:38.574Z,91108.28
2022-08-26T20:22:05.750Z,91109.28
2022-08-26T20:24:34.160Z,91103.56
2022-08-26T20:27:05.476Z,91111.13
2022-08-26T20:29:34.902Z,91108.78
2022-08-26T20:32:02.808Z,91113.63
2022-08-26T20:34:30.785Z,91105.41
2022-08-26T20:36:57.889Z,91097.03
2022-08-26T20:39:24.621Z,91114.59
2022-08-26T20:41:51.502Z,91114.53
2022-08-26T20:44:18.173Z,91121.75
2022-08-26T20:46:45.584Z,91115.78
2022-08-26T20:49:13.430Z,91117.16
2022-08-26T20:51:40.738Z,91129.44
2022-08-26T20:54:07.659Z,91124.81
2022-08-26T20:56:34.923Z,91119.94
2022-08-26T20:59:03.321Z,91125.50
2022-08-26T21:01:34.634Z,91121.69
2022-08-26T21:04:11.160Z,91117.28
2022-08-26T21:06:42.353Z,91111.59
2022-08-26T21:09:16.697Z,91121.69
2022-08-26T21:11:45.616Z,91123.72
2022-08-26T21:14:16.210Z,91125.66
2022-08-26T21:16:45.215Z,91127.38
2022-08-26T21:19:15.070Z,91125.84
2022-08-26T21:21:42.507Z,91114.06
2022-08-26T21:24:09.427Z,91119.97
2022-08-26T21:26:36.293Z,91119.78
2022-08-26T21:29:04.724Z,91118.97
2022-08-26T21:31:32.229Z,91109.31
2022-08-26T21:33:59.794Z,91119.03
2022-08-26T21:36:26.991Z,91119.78
2022-08-26T21:38:59.525Z,91114.97
2022-08-26T21:41:30.091Z,91121.75
2022-08-26T21:44:01.474Z,91121.53
2022-08-26T21:46:30.404Z,91119.34
2022-08-26T21:49:00.249Z,91121.41
2022-08-26T21:51:34.367Z,91118.09
2022-08-26T21:54:02.811Z,91127.09
2022-08-26T21:56:31.653Z,91135.91
2022-08-26T21:58:59.967Z,91138.22
2022-08-26T22:01:31.929Z,91133.13
2022-08-26T22:03:59.088Z,91107.56
2022-08-26T22:06:27.662Z,91137.88
2022-08-26T22:08:55.924Z,91121.44
2022-08-26T22:11:22.869Z,91116.97
2022-08-26T22:13:50.545Z,91127.41
2022-08-26T22:16:19.203Z,91134.13
2022-08-26T22:18:46.286Z,91122.19
2022-08-26T22:21:20.678Z,91118.09
2022-08-26T22:23:47.682Z,91111.66
2022-08-26T22:26:20.602Z,91123.59
2022-08-26T22:28:54.152Z,91122.44
2022-08-26T22:31:27.962Z,91116.03
2022-08-26T22:33:57.298Z,91118.38
2022-08-26T22:36:29.700Z,91119.06
2022-08-26T22:38:58.456Z,91115.19
2022-08-26T22:41:26.370Z,91121.88
2022-08-26T22:43:53.106Z,91103.72
2022-08-26T22:46:22.606Z,91125.16
2022-08-26T22:48:53.837Z,91127.97
2022-08-26T22:51:21.973Z,91127.81
2022-08-26T22:53:50.815Z,91125.47
2022-08-26T22:56:19.099Z,91118.19
2022-08-26T22:58:45.875Z,91113.97
2022-08-26T23:01:16.288Z,91125.78
2022-08-26T23:03:43.795Z,91121.41
2022-08-26T23:06:10.709Z,91129.00
2022-08-26T23:08:38.854Z,91130.91
2022-08-26T23:11:10.508Z,91119.06
2022-08-26T23:13:38.148Z,91132.66
2022-08-26T23:16:11.771Z,91130.97
2022-08-26T23:18:40.794Z,91117.28
2022-08-26T23:21:08.186Z,91126.25
2022-08-26T23:23:35.478Z,91126.84
2022-08-26T23:26:06.173Z,91123.59
2022-08-26T23:28:33.444Z,91122.69
2022-08-26T23:31:00.228Z,91122.63
2022-08-26T23:33:46.927Z,91124.84
2022-08-26T23:36:17.952Z,91120.56
2022-08-26T23:38:48.130Z,91120.25
2022-08-26T23:41:21.257Z,91120.84
2022-08-26T23:43:47.882Z,91098.66
2022-08-26T23:46:15.059Z,91111.66
2022-08-26T23:48:41.784Z,91110.84
2022-08-26T23:51:28.474Z,91110.09
2022-08-26T23:53:58.493Z,91107.03
2022-08-26T23:56:26.755Z,91101.09
2022-08-26T23:58:54.033Z,91104.91
